createdAt,value
2019-01-19T00:01:02.538Z,4.50
2019-01-19T00:04:10.910Z,4.10
2019-01-19T00:13:20.490Z,4.87
2019-01-19T00:19:28.083Z,5.37
2019-01-19T00:22:36.401Z,5.05
2019-01-19T00:25:35.672Z,5.80
2019-01-19T00:28:42.665Z,3.47
2019-01-19T00:40:52.663Z,4.17
2019-01-19T00:43:20.878Z,5.53
2019-01-19T00:52:41.970Z,3.55
2019-01-19T00:55:50.347Z,5.50
2019-01-19T00:58:49.792Z,5.28
2019-01-19T01:05:03.493Z,3.80
2019-01-19T01:14:24.630Z,3.40
2019-01-19T01:20:32.321Z,3.80
2019-01-19T01:26:39.781Z,6.25
2019-01-19T01:29:48.100Z,4.05
2019-01-19T01:32:55.094Z,4.15
2019-01-19T01:36:03.485Z,5.65
2019-01-19T01:39:10.464Z,4.47
2019-01-19T01:42:18.770Z,4.95
2019-01-19T01:45:25.757Z,4.95
2019-01-19T01:48:32.739Z,3.95
2019-01-19T01:51:41.050Z,3.90
2019-01-19T01:54:48.021Z,3.55
2019-01-19T01:57:56.326Z,7.42
2019-01-19T02:01:04.693Z,6.72
2019-01-19T02:04:11.675Z,3.35
2019-01-19T02:07:19.982Z,6.25
2019-01-19T02:19:35.007Z,3.62
2019-01-19T02:22:41.996Z,2.85
2019-01-19T02:25:48.979Z,3.47
2019-01-19T02:28:57.290Z,3.45
2019-01-19T02:32:04.293Z,3.70
2019-01-19T02:38:24.927Z,5.33
2019-01-19T02:47:26.142Z,2.80
2019-01-19T02:50:33.181Z,5.03
2019-01-19T02:53:40.182Z,4.62
2019-01-19T02:56:47.162Z,5.58
2019-01-19T02:59:55.475Z,4.45
2019-01-19T03:03:02.463Z,4.33
2019-01-19T03:09:23.204Z,4.37
2019-01-19T03:12:30.205Z,3.65
2019-01-19T03:15:38.533Z,5.03
2019-01-19T03:18:37.845Z,5.12
2019-01-19T03:21:44.822Z,5.00
2019-01-19T03:24:53.212Z,3.77
2019-01-19T03:31:13.629Z,6.28
2019-01-19T03:34:21.931Z,3.52
2019-01-19T03:37:28.911Z,3.83
2019-01-19T03:40:37.221Z,5.65
2019-01-19T03:46:44.986Z,5.25
2019-01-19T03:49:51.974Z,7.35
2019-01-19T03:56:12.837Z,4.30
2019-01-19T03:59:19.834Z,3.80
2019-01-19T04:08:42.179Z,4.92
2019-01-19T04:11:49.163Z,3.50
2019-01-19T04:20:50.620Z,5.10
2019-01-19T04:23:18.807Z,4.75
2019-01-19T04:26:27.111Z,3.75
2019-01-19T04:31:44.182Z,7.10
2019-01-19T04:34:12.475Z,5.42
2019-01-19T04:36:40.649Z,3.33
2019-01-19T04:41:57.712Z,5.55
2019-01-19T04:44:25.894Z,4.90
2019-01-19T04:46:54.088Z,7.67
2019-01-19T04:49:22.271Z,3.67
2019-01-19T04:51:50.466Z,4.42
2019-01-19T04:54:18.662Z,3.72
2019-01-19T04:56:46.852Z,3.92
2019-01-19T04:59:15.062Z,5.00
2019-01-19T05:01:43.262Z,4.95
2019-01-19T05:04:11.440Z,5.28
2019-01-19T05:06:39.645Z,4.72
2019-01-19T05:09:07.826Z,3.27
2019-01-19T05:11:36.022Z,3.25
2019-01-19T05:14:04.284Z,4.58
2019-01-19T05:16:32.496Z,4.65
2019-01-19T05:19:00.674Z,4.92
2019-01-19T05:21:28.926Z,7.08
2019-01-19T05:23:57.194Z,4.15
2019-01-19T05:26:25.372Z,3.52
2019-01-19T05:28:53.568Z,3.85
2019-01-19T05:31:21.746Z,4.05
2019-01-19T05:33:49.946Z,4.35
2019-01-19T05:36:18.130Z,3.30
2019-01-19T05:38:46.330Z,3.45
2019-01-19T05:41:14.509Z,4.87
2019-01-19T05:43:42.701Z,5.78
2019-01-19T05:46:10.887Z,7.78
2019-01-19T05:48:39.083Z,6.12
2019-01-19T05:51:07.273Z,7.03
2019-01-19T05:53:35.470Z,4.47
2019-01-19T05:56:03.666Z,5.10
2019-01-19T05:58:31.863Z,4.03
2019-01-19T06:01:00.053Z,7.00
2019-01-19T06:03:28.262Z,5.15
2019-01-19T06:08:45.331Z,5.60
2019-01-19T06:11:13.527Z,7.12
2019-01-19T06:13:41.718Z,7.85
2019-01-19T06:16:09.912Z,7.28
2019-01-19T06:23:48.505Z,4.42
2019-01-19T06:26:16.695Z,5.80
2019-01-19T06:28:44.891Z,7.58
2019-01-19T06:31:13.080Z,3.90
2019-01-19T06:33:41.283Z,5.15
2019-01-19T06:36:09.473Z,3.37
2019-01-19T06:38:37.658Z,6.65
2019-01-19T06:41:05.860Z,3.22
2019-01-19T06:43:34.048Z,3.02
2019-01-19T06:46:02.261Z,5.53
2019-01-19T06:48:30.452Z,8.38
2019-01-19T06:50:58.648Z,5.12
2019-01-19T06:53:26.835Z,5.45
2019-01-19T06:55:55.044Z,10.53
2019-01-19T06:58:23.234Z,7.70
2019-01-19T07:00:51.435Z,5.72
2019-01-19T07:03:19.612Z,4.10
2019-01-19T07:05:47.817Z,3.42
2019-01-19T07:08:16.000Z,3.47
2019-01-19T07:10:44.206Z,8.30
2019-01-19T07:13:12.397Z,8.78
2019-01-19T07:15:40.599Z,8.80
2019-01-19T07:18:28.220Z,7.92
2019-01-19T07:20:56.419Z,3.70
2019-01-19T07:23:24.599Z,6.47
2019-01-19T07:26:12.226Z,4.62
2019-01-19T07:28:40.420Z,5.55
2019-01-19T07:31:08.617Z,6.72
2019-01-19T07:33:36.803Z,5.58
2019-01-19T07:36:05.011Z,8.48
2019-01-19T07:38:33.200Z,6.92
2019-01-19T07:41:01.409Z,6.87
2019-01-19T07:48:57.551Z,6.40
2019-01-19T07:51:25.807Z,8.38
2019-01-19T07:53:53.950Z,9.45
2019-01-19T07:56:22.151Z,6.90
2019-01-19T07:58:50.343Z,8.95
2019-01-19T08:01:18.549Z,7.33
2019-01-19T08:03:46.746Z,14.70
2019-01-19T08:08:49.180Z,8.08
2019-01-19T08:11:17.407Z,11.43
2019-01-19T08:13:45.594Z,8.40
2019-01-19T08:16:13.795Z,10.45
2019-01-19T08:18:41.992Z,11.22
2019-01-19T08:21:10.203Z,11.45
2019-01-19T08:23:38.393Z,12.78
2019-01-19T08:26:06.596Z,15.53
2019-01-19T08:28:34.784Z,19.57
2019-01-19T08:31:02.994Z,13.88
2019-01-19T08:33:31.179Z,14.45
2019-01-19T08:38:38.522Z,17.15
2019-01-19T08:41:06.722Z,11.63
2019-01-19T08:46:23.800Z,20.37
2019-01-19T08:48:51.987Z,19.07
2019-01-19T08:51:20.187Z,20.97
2019-01-19T08:53:48.380Z,21.17
2019-01-19T08:56:16.589Z,21.82
2019-01-19T08:58:44.807Z,21.52
2019-01-19T09:01:12.980Z,21.10
2019-01-19T09:03:41.167Z,20.32
2019-01-19T09:06:09.383Z,21.45
2019-01-19T09:08:37.577Z,22.60
2019-01-19T09:11:05.763Z,13.48
2019-01-19T09:13:33.969Z,17.20
2019-01-19T09:19:10.207Z,18.98
2019-01-19T09:21:38.413Z,16.73
2019-01-19T09:26:55.491Z,18.30
2019-01-19T09:29:23.683Z,13.20
2019-01-19T09:31:51.996Z,16.73
2019-01-19T09:34:20.182Z,15.23
2019-01-19T09:36:48.378Z,17.50
2019-01-19T09:39:35.950Z,15.35
2019-01-19T09:42:04.158Z,17.37
2019-01-19T09:44:32.349Z,15.43
2019-01-19T09:47:00.541Z,15.38
2019-01-19T09:49:28.751Z,15.03
2019-01-19T09:51:56.978Z,19.07
2019-01-19T09:54:25.157Z,11.50
2019-01-19T09:56:53.348Z,16.55
2019-01-19T09:59:21.552Z,13.83
2019-01-19T10:01:49.742Z,17.27
2019-01-19T10:04:17.948Z,15.32
2019-01-19T10:06:46.140Z,12.58
2019-01-19T10:09:14.344Z,12.90
2019-01-19T10:11:42.534Z,15.23
2019-01-19T10:14:10.746Z,18.57
2019-01-19T10:16:38.994Z,16.55
2019-01-19T10:19:07.149Z,14.18
2019-01-19T10:24:24.219Z,17.70
2019-01-19T10:26:52.409Z,11.45
2019-01-19T10:32:00.255Z,16.87
2019-01-19T10:34:28.463Z,21.57
2019-01-19T10:36:56.653Z,16.17
2019-01-19T10:39:24.864Z,19.55
2019-01-19T10:41:53.052Z,15.03
2019-01-19T10:44:21.259Z,12.23
2019-01-19T10:46:49.450Z,13.88
2019-01-19T10:49:17.652Z,12.15
2019-01-19T10:51:45.851Z,13.05
2019-01-19T10:54:14.063Z,18.42
2019-01-19T10:56:42.258Z,13.75
2019-01-19T10:59:10.465Z,14.95
2019-01-19T11:01:38.676Z,13.28
2019-01-19T11:04:06.883Z,15.15
2019-01-19T11:06:35.071Z,11.60
2019-01-19T11:14:37.707Z,246.15
2019-01-19T11:17:05.907Z,349.92
2019-01-19T11:19:34.127Z,315.70
2019-01-19T11:22:02.328Z,287.63
2019-01-19T11:24:30.543Z,290.40
2019-01-19T11:26:58.752Z,234.98
2019-01-19T11:29:26.957Z,205.45
2019-01-19T11:31:55.172Z,141.65
2019-01-19T11:34:23.385Z,126.02
2019-01-19T11:36:51.602Z,118.13
2019-01-19T11:39:19.816Z,111.00
2019-01-19T11:41:48.037Z,91.35
2019-01-19T11:44:16.247Z,78.90
2019-01-19T11:46:44.461Z,90.03
2019-01-19T11:49:12.660Z,66.62
2019-01-19T11:51:40.872Z,67.47
2019-01-19T11:56:57.967Z,63.15
2019-01-19T11:59:26.163Z,46.70
2019-01-19T12:01:54.378Z,58.83
2019-01-19T12:04:22.580Z,46.00
2019-01-19T12:06:57.927Z,41.53
2019-01-19T12:09:26.123Z,38.85
2019-01-19T12:11:54.339Z,31.93
2019-01-19T12:14:22.537Z,27.60
2019-01-19T12:16:50.745Z,24.67
2019-01-19T12:19:18.938Z,29.10
2019-01-19T12:21:47.145Z,28.40
2019-01-19T12:24:15.344Z,26.35
2019-01-19T12:26:43.551Z,24.43
2019-01-19T12:29:11.750Z,21.95
2019-01-19T12:31:39.957Z,19.65
2019-01-19T12:34:08.151Z,16.67
2019-01-19T12:36:36.387Z,19.57
2019-01-19T12:42:18.601Z,17.32
2019-01-19T12:44:46.807Z,20.90
2019-01-19T12:47:15.051Z,16.73
2019-01-19T12:49:43.251Z,16.93
2019-01-19T12:52:11.446Z,12.13
2019-01-19T12:54:39.650Z,10.78
2019-01-19T12:57:07.848Z,12.13
2019-01-19T12:59:36.062Z,11.88
2019-01-19T13:02:04.274Z,15.23
2019-01-19T13:04:32.477Z,16.17
2019-01-19T13:07:00.678Z,10.90
2019-01-19T13:09:28.885Z,14.50
2019-01-19T13:18:37.101Z,10.20
2019-01-19T13:21:44.096Z,10.40
2019-01-19T13:24:52.414Z,12.75
2019-01-19T13:27:59.407Z,12.88
2019-01-19T13:31:07.722Z,11.73
2019-01-19T13:34:14.745Z,9.88
2019-01-19T13:46:37.308Z,7.37
2019-01-19T13:49:45.619Z,6.65
2019-01-19T13:56:06.764Z,7.72
2019-01-19T13:59:15.064Z,5.05
2019-01-19T14:02:22.073Z,9.33
2019-01-19T14:08:30.165Z,10.40
2019-01-19T14:11:37.174Z,11.57
2019-01-19T14:17:57.915Z,7.90
2019-01-19T14:21:06.232Z,9.20
2019-01-19T14:27:27.460Z,11.95
2019-01-19T14:39:36.753Z,12.20
2019-01-19T14:42:45.128Z,9.03
2019-01-19T14:45:52.115Z,16.12
2019-01-19T14:48:59.134Z,13.13
2019-01-19T14:55:19.985Z,10.98
2019-01-19T14:58:26.988Z,13.18
2019-01-19T15:01:33.970Z,10.75
2019-01-19T15:04:40.974Z,9.98
2019-01-19T15:20:05.264Z,9.93
2019-01-19T15:23:12.270Z,10.50
2019-01-19T15:26:19.254Z,9.83
2019-01-19T15:29:27.570Z,10.40
2019-01-19T15:32:34.572Z,10.03
2019-01-19T15:35:41.579Z,10.32
2019-01-19T15:38:40.958Z,8.10
2019-01-19T15:48:03.529Z,14.40
2019-01-19T15:51:11.842Z,13.78
2019-01-19T15:54:18.832Z,15.53
2019-01-19T15:57:25.827Z,13.32
2019-01-19T16:00:32.832Z,9.25
2019-01-19T16:09:54.580Z,8.18
2019-01-19T16:31:07.248Z,9.83
2019-01-19T16:40:28.283Z,11.40
2019-01-19T16:43:35.273Z,13.62
2019-01-19T16:46:44.903Z,16.77
2019-01-19T16:59:08.700Z,9.53
2019-01-19T17:02:17.076Z,9.93
2019-01-19T17:05:24.056Z,8.35
2019-01-19T17:08:31.066Z,13.20
2019-01-19T17:14:39.375Z,17.35
2019-01-19T17:17:47.762Z,27.70
2019-01-19T17:20:54.743Z,23.73
2019-01-19T17:24:03.076Z,28.02
2019-01-19T17:30:23.729Z,30.50
2019-01-19T17:33:32.139Z,30.40
2019-01-19T17:39:53.253Z,20.97
2019-01-19T17:43:00.262Z,12.65
2019-01-19T17:46:07.249Z,14.60
2019-01-19T17:49:15.562Z,15.38
2019-01-19T17:52:22.545Z,14.93
2019-01-19T17:55:30.858Z,8.68
2019-01-19T17:58:37.925Z,12.63
2019-01-19T18:10:48.415Z,22.58
2019-01-19T18:13:55.417Z,14.30
2019-01-19T18:17:02.403Z,13.50
2019-01-19T18:20:10.714Z,13.93
2019-01-19T18:26:31.339Z,16.40
2019-01-19T18:32:39.384Z,21.10
2019-01-19T18:35:46.383Z,22.45
2019-01-19T18:38:53.368Z,26.45
2019-01-19T18:42:01.769Z,27.13
2019-01-19T18:48:22.894Z,30.62
2019-01-19T18:51:29.906Z,17.82
2019-01-19T19:00:50.893Z,21.97
2019-01-19T19:03:57.887Z,18.98
2019-01-19T19:07:04.890Z,20.90
2019-01-19T19:10:11.872Z,19.60
2019-01-19T19:13:18.873Z,24.15
2019-01-19T19:16:26.341Z,15.05
2019-01-19T19:22:46.998Z,15.90
2019-01-19T19:25:53.985Z,11.97
2019-01-19T19:29:00.985Z,16.73
2019-01-19T19:32:07.996Z,15.80
2019-01-19T19:35:14.984Z,18.62
2019-01-19T19:38:21.988Z,24.50
2019-01-19T19:50:45.639Z,20.70
2019-01-19T19:53:13.845Z,19.48
2019-01-19T19:55:41.087Z,22.95
2019-01-19T19:58:09.288Z,26.17
2019-01-19T20:00:37.479Z,25.95
2019-01-19T20:03:05.758Z,20.92
2019-01-19T20:05:33.945Z,18.32
2019-01-19T20:08:02.147Z,12.60
2019-01-19T20:10:30.341Z,12.80
2019-01-19T20:12:58.549Z,18.65
2019-01-19T20:15:26.744Z,16.57
2019-01-19T20:17:54.948Z,17.75
2019-01-19T20:20:23.138Z,17.48
2019-01-19T20:22:51.328Z,16.90
2019-01-19T20:25:19.535Z,13.50
2019-01-19T20:27:47.724Z,13.30
2019-01-19T20:30:56.045Z,14.73
2019-01-19T20:33:24.249Z,17.80
2019-01-19T20:35:52.440Z,17.40
2019-01-19T20:38:20.644Z,20.80
2019-01-19T20:40:48.836Z,16.23
2019-01-19T20:43:17.051Z,19.70
2019-01-19T20:45:45.240Z,19.98
2019-01-19T20:51:02.320Z,16.25
2019-01-19T20:53:30.509Z,16.05
2019-01-19T20:55:58.713Z,15.72
2019-01-19T20:58:26.924Z,18.70
2019-01-19T21:00:55.124Z,13.38
2019-01-19T21:03:23.311Z,18.10
2019-01-19T21:05:51.516Z,15.00
2019-01-19T21:08:19.709Z,17.85
2019-01-19T21:10:47.912Z,14.28
2019-01-19T21:13:16.101Z,22.45
2019-01-19T21:15:44.300Z,14.85
2019-01-19T21:18:12.495Z,23.20
2019-01-19T21:20:40.696Z,13.35
2019-01-19T21:23:08.882Z,22.55
2019-01-19T21:25:37.090Z,28.00
2019-01-19T21:28:05.285Z,17.12
2019-01-19T21:30:33.483Z,21.80
2019-01-19T21:33:01.671Z,23.67
2019-01-19T21:35:29.869Z,19.40
2019-01-19T21:37:58.058Z,20.25
2019-01-19T21:40:26.266Z,28.17
2019-01-19T21:42:54.454Z,19.12
2019-01-19T21:45:22.657Z,14.80
2019-01-19T21:47:50.848Z,12.78
2019-01-19T21:50:19.068Z,21.77
2019-01-19T21:52:47.262Z,24.70
2019-01-19T21:55:15.453Z,21.37
2019-01-19T21:57:43.667Z,14.58
2019-01-19T22:03:13.020Z,21.55
2019-01-19T22:05:41.254Z,17.67
2019-01-19T22:08:09.443Z,15.78
2019-01-19T22:10:37.638Z,14.03
2019-01-19T22:13:05.843Z,12.05
2019-01-19T22:15:34.039Z,13.28
2019-01-19T22:18:02.245Z,12.75
2019-01-19T22:20:30.432Z,12.93
2019-01-19T22:22:58.635Z,12.30
2019-01-19T22:25:26.824Z,12.80
2019-01-19T22:27:55.035Z,11.78
2019-01-19T22:31:03.348Z,9.45
2019-01-19T22:36:10.868Z,10.58
2019-01-19T22:38:39.072Z,14.10
2019-01-19T22:41:07.263Z,14.63
2019-01-19T22:43:35.474Z,10.75
2019-01-19T22:46:03.663Z,9.73
2019-01-19T22:48:31.886Z,9.48
2019-01-19T22:51:00.076Z,12.68
2019-01-19T22:53:28.286Z,11.73
2019-01-19T22:55:56.478Z,9.73
2019-01-19T22:58:24.691Z,13.08
2019-01-19T23:01:31.674Z,12.05
2019-01-19T23:03:59.887Z,12.05
2019-01-19T23:06:28.083Z,11.63
2019-01-19T23:08:56.284Z,6.60
2019-01-19T23:11:24.480Z,11.05
2019-01-19T23:13:52.694Z,11.35
2019-01-19T23:16:20.893Z,11.10
2019-01-19T23:18:49.098Z,11.08
2019-01-19T23:21:17.297Z,14.15
2019-01-19T23:23:45.498Z,7.62
2019-01-19T23:29:02.589Z,14.75
2019-01-19T23:31:30.797Z,12.45
2019-01-19T23:33:59.006Z,13.75
2019-01-19T23:36:27.208Z,13.28
2019-01-19T23:38:55.412Z,8.95
2019-01-19T23:41:23.606Z,11.88
2019-01-19T23:43:51.814Z,9.73
2019-01-19T23:46:20.012Z,11.63
2019-01-19T23:48:48.218Z,11.85
2019-01-19T23:51:16.403Z,9.08
2019-01-19T23:53:44.616Z,11.73
2019-01-19T23:56:12.808Z,7.95
2019-01-19T23:58:41.011Z,8.68
